createdAt,value
2023-12-09T00:01:10.795Z,81.78
2023-12-09T00:06:17.450Z,81.90
2023-12-09T00:11:23.520Z,81.67
2023-12-09T00:16:29.380Z,81.69
2023-12-09T00:21:35.228Z,81.81
2023-12-09T00:26:41.221Z,82.04
2023-12-09T00:31:47.030Z,81.85
2023-12-09T00:36:52.865Z,81.74
2023-12-09T00:41:58.678Z,81.97
2023-12-09T00:47:04.497Z,81.87
2023-12-09T00:52:10.622Z,81.68
2023-12-09T00:57:16.777Z,82.06
2023-12-09T01:02:22.950Z,81.94
2023-12-09T01:07:29.172Z,81.78
2023-12-09T01:12:35.038Z,81.71
2023-12-09T01:17:40.893Z,81.67
2023-12-09T01:22:46.845Z,81.80
2023-12-09T01:27:53.724Z,81.46
2023-12-09T01:32:58.222Z,81.62
2023-12-09T01:38:04.710Z,81.25
2023-12-09T01:43:12.935Z,81.44
2023-12-09T01:48:19.285Z,81.61
2023-12-09T01:53:25.909Z,81.42
2023-12-09T01:58:31.741Z,81.67
2023-12-09T02:03:38.183Z,81.43
2023-12-09T02:08:44.375Z,81.76
2023-12-09T02:14:00.685Z,81.79
2023-12-09T02:19:09.786Z,81.51
2023-12-09T02:24:15.748Z,81.24
2023-12-09T02:29:22.520Z,81.58
2023-12-09T02:34:30.695Z,81.87
2023-12-09T02:39:37.285Z,81.15
2023-12-09T02:44:45.419Z,82.01
2023-12-09T02:49:51.525Z,81.38
2023-12-09T02:54:57.425Z,81.14
2023-12-09T03:00:04.983Z,81.37
2023-12-09T03:05:11.600Z,81.42
2023-12-09T03:10:17.651Z,81.30
2023-12-09T03:15:23.741Z,81.19
2023-12-09T03:20:29.624Z,81.15
2023-12-09T03:25:35.443Z,81.32
2023-12-09T03:30:41.397Z,81.30
2023-12-09T03:35:47.212Z,81.19
2023-12-09T03:40:53.005Z,81.33
2023-12-09T03:45:59.356Z,81.33
2023-12-09T03:51:05.496Z,81.19
2023-12-09T03:56:13.736Z,81.42
2023-12-09T04:01:19.609Z,81.13
2023-12-09T04:06:25.459Z,81.41
2023-12-09T04:11:31.502Z,81.20
2023-12-09T04:16:37.289Z,81.22
2023-12-09T04:21:43.296Z,81.21
2023-12-09T04:26:49.167Z,81.23
2023-12-09T04:31:54.930Z,81.08
2023-12-09T04:37:01.618Z,80.89
2023-12-09T04:42:07.751Z,81.00
2023-12-09T04:47:14.145Z,80.96
2023-12-09T04:52:20.035Z,80.92
2023-12-09T04:57:26.275Z,80.67
2023-12-09T05:02:32.276Z,80.70
2023-12-09T05:07:38.217Z,80.95
2023-12-09T05:12:44.225Z,80.73
2023-12-09T05:17:50.243Z,80.78
2023-12-09T05:22:56.039Z,80.86
2023-12-09T05:28:02.040Z,80.44
2023-12-09T05:33:08.236Z,80.45
2023-12-09T05:38:14.017Z,80.45
2023-12-09T05:43:19.841Z,80.69
2023-12-09T05:48:25.860Z,80.13
2023-12-09T05:53:32.379Z,80.57
2023-12-09T05:58:38.184Z,80.55
2023-12-09T06:03:44.093Z,80.53
2023-12-09T06:08:50.457Z,80.72
2023-12-09T06:13:56.876Z,80.50
2023-12-09T06:19:02.664Z,80.62
2023-12-09T06:24:09.534Z,80.79
2023-12-09T06:29:17.339Z,80.65
2023-12-09T06:34:23.215Z,80.79
2023-12-09T06:39:29.173Z,80.69
2023-12-09T06:44:35.074Z,80.85
2023-12-09T06:49:41.038Z,81.02
2023-12-09T06:54:46.957Z,80.74
2023-12-09T06:59:52.725Z,80.78
2023-12-09T07:04:58.625Z,80.55
2023-12-09T07:10:06.765Z,80.79
2023-12-09T07:15:13.678Z,80.54
2023-12-09T07:20:19.731Z,81.00
2023-12-09T07:25:25.992Z,80.89
2023-12-09T07:30:32.197Z,80.81
2023-12-09T07:35:38.251Z,81.04
2023-12-09T07:40:44.105Z,81.01
2023-12-09T07:45:50.233Z,80.79
2023-12-09T07:50:56.143Z,80.94
2023-12-09T07:56:02.051Z,80.81
2023-12-09T08:01:11.204Z,80.73
2023-12-09T08:06:18.001Z,80.88
2023-12-09T08:11:23.824Z,80.88
2023-12-09T08:16:29.595Z,80.88
2023-12-09T08:21:39.907Z,81.01
2023-12-09T08:26:46.104Z,81.16
2023-12-09T08:31:51.891Z,80.83
2023-12-09T08:36:57.692Z,80.98
2023-12-09T08:42:03.537Z,80.99
2023-12-09T08:47:09.532Z,81.17
2023-12-09T08:52:15.671Z,81.04
2023-12-09T08:57:21.797Z,81.37
2023-12-09T09:02:28.841Z,81.25
2023-12-09T09:07:40.036Z,81.48
2023-12-09T09:12:47.193Z,81.83
2023-12-09T09:17:53.181Z,81.98
2023-12-09T09:22:59.340Z,82.09
2023-12-09T09:28:05.730Z,81.94
2023-12-09T09:33:12.122Z,82.25
2023-12-09T09:38:18.464Z,82.40
2023-12-09T09:43:27.805Z,82.17
2023-12-09T09:48:36.714Z,82.40
2023-12-09T09:53:49.332Z,82.06
2023-12-09T09:58:56.124Z,82.72
2023-12-09T10:04:00.651Z,82.16
2023-12-09T10:09:07.125Z,82.65
2023-12-09T10:14:13.343Z,82.42
2023-12-09T10:19:22.309Z,83.10
2023-12-09T10:24:28.707Z,83.09
2023-12-09T10:29:35.264Z,82.93
2023-12-09T10:34:41.412Z,82.79
2023-12-09T10:39:48.202Z,82.44
2023-12-09T10:44:54.107Z,83.07
2023-12-09T10:50:00.839Z,83.15
2023-12-09T10:55:08.530Z,83.06
2023-12-09T11:00:16.945Z,82.94
2023-12-09T11:05:23.971Z,83.14
2023-12-09T11:10:28.441Z,83.23
2023-12-09T11:15:34.341Z,83.15
2023-12-09T11:20:43.261Z,82.91
2023-12-09T11:25:49.220Z,82.99
2023-12-09T11:30:59.918Z,82.87
2023-12-09T11:36:07.051Z,82.70
2023-12-09T11:41:13.055Z,82.94
2023-12-09T11:46:19.280Z,83.04
2023-12-09T11:51:25.466Z,82.71
2023-12-09T11:56:31.953Z,82.89
2023-12-09T12:01:38.431Z,82.58
2023-12-09T12:06:44.586Z,82.43
2023-12-09T12:11:53.039Z,82.82
2023-12-09T12:16:59.042Z,82.76
2023-12-09T12:22:06.543Z,82.96
2023-12-09T12:27:12.916Z,82.90
2023-12-09T12:32:18.996Z,83.57
2023-12-09T12:37:24.934Z,83.10
2023-12-09T12:42:32.181Z,83.05
2023-12-09T12:47:38.540Z,82.76
2023-12-09T12:52:45.450Z,83.12
2023-12-09T12:57:51.940Z,83.32
2023-12-09T13:02:58.937Z,83.16
2023-12-09T13:08:06.230Z,83.61
2023-12-09T13:13:12.718Z,83.28
2023-12-09T13:18:20.493Z,83.18
2023-12-09T13:23:28.877Z,83.18
2023-12-09T13:28:33.318Z,83.24
2023-12-09T13:33:39.517Z,83.23
2023-12-09T13:38:46.076Z,83.27
2023-12-09T13:43:52.173Z,83.39
2023-12-09T13:48:58.283Z,82.49
2023-12-09T13:54:04.966Z,83.19
2023-12-09T13:59:11.049Z,83.58
2023-12-09T14:04:17.113Z,82.96
2023-12-09T14:09:24.618Z,83.25
2023-12-09T14:14:31.102Z,83.36
2023-12-09T14:19:38.872Z,83.09
2023-12-09T14:24:45.032Z,83.22
2023-12-09T14:29:51.690Z,83.11
2023-12-09T14:34:57.919Z,83.09
2023-12-09T14:40:05.088Z,83.16
2023-12-09T14:45:12.535Z,83.44
2023-12-09T14:50:19.218Z,83.16
2023-12-09T14:55:25.657Z,83.90
2023-12-09T15:00:31.923Z,83.61
2023-12-09T15:05:38.241Z,83.19
2023-12-09T15:10:44.366Z,83.41
2023-12-09T15:15:50.761Z,83.83
2023-12-09T15:20:57.019Z,83.28
2023-12-09T15:26:03.162Z,83.55
2023-12-09T15:31:09.368Z,83.23
2023-12-09T15:36:15.980Z,83.76
2023-12-09T15:41:22.933Z,83.93
2023-12-09T15:46:28.998Z,83.62
2023-12-09T15:51:35.180Z,83.29
2023-12-09T15:56:41.341Z,83.98
2023-12-09T16:01:48.219Z,83.07
2023-12-09T16:06:54.759Z,83.43
2023-12-09T16:12:00.988Z,83.29
2023-12-09T16:17:07.448Z,83.31
2023-12-09T16:22:13.442Z,83.17
2023-12-09T16:27:19.607Z,83.14
2023-12-09T16:32:28.524Z,83.26
2023-12-09T16:37:35.365Z,83.45
2023-12-09T16:42:41.950Z,83.00
2023-12-09T16:47:48.359Z,83.86
2023-12-09T16:52:54.293Z,83.35
2023-12-09T16:58:00.451Z,84.14
2023-12-09T17:03:06.683Z,82.80
2023-12-09T17:08:12.854Z,83.29
2023-12-09T17:13:18.924Z,83.36
2023-12-09T17:18:25.210Z,83.57
2023-12-09T17:23:33.323Z,83.20
2023-12-09T17:28:40.277Z,83.17
2023-12-09T17:33:46.406Z,83.16
2023-12-09T17:38:52.486Z,83.24
2023-12-09T17:43:59.049Z,82.49
2023-12-09T17:49:06.040Z,82.87
2023-12-09T17:54:12.709Z,82.59
2023-12-09T17:59:18.726Z,82.86
2023-12-09T18:04:25.166Z,82.76
2023-12-09T18:09:31.577Z,82.55
2023-12-09T18:14:37.983Z,82.97
2023-12-09T18:19:46.918Z,82.82
2023-12-09T18:24:53.027Z,83.06
2023-12-09T18:29:59.647Z,83.07
2023-12-09T18:35:10.060Z,82.84
2023-12-09T18:40:16.814Z,82.95
2023-12-09T18:45:21.155Z,82.85
2023-12-09T18:50:27.651Z,82.77
2023-12-09T18:55:34.088Z,82.63
2023-12-09T19:00:40.464Z,82.48
2023-12-09T19:05:46.484Z,82.56
2023-12-09T19:10:52.451Z,83.00
2023-12-09T19:15:58.614Z,82.30
2023-12-09T19:21:05.011Z,82.60
2023-12-09T19:26:11.497Z,82.61
2023-12-09T19:31:17.590Z,82.71
2023-12-09T19:36:23.945Z,83.07
2023-12-09T19:41:29.990Z,83.05
2023-12-09T19:46:36.503Z,82.60
2023-12-09T19:51:42.776Z,82.78
2023-12-09T19:56:49.104Z,82.68
2023-12-09T20:01:55.070Z,82.69
2023-12-09T20:07:01.231Z,82.69
2023-12-09T20:12:07.908Z,82.54
2023-12-09T20:17:14.099Z,82.46
2023-12-09T20:22:21.401Z,82.22
2023-12-09T20:27:27.526Z,82.59
2023-12-09T20:32:33.851Z,82.13
2023-12-09T20:37:40.277Z,82.51
2023-12-09T20:42:46.398Z,82.27
2023-12-09T20:47:52.814Z,81.64
2023-12-09T20:52:58.967Z,81.67
2023-12-09T20:58:05.425Z,81.69
2023-12-09T21:03:12.444Z,80.96
2023-12-09T21:08:18.671Z,81.24
2023-12-09T21:13:25.196Z,81.39
2023-12-09T21:18:31.214Z,81.33
2023-12-09T21:23:37.216Z,81.39
2023-12-09T21:28:43.314Z,81.08
2023-12-09T21:33:49.326Z,81.09
2023-12-09T21:38:55.439Z,80.93
2023-12-09T21:44:01.355Z,80.72
2023-12-09T21:49:07.437Z,80.65
2023-12-09T21:54:14.750Z,80.30
2023-12-09T21:59:21.052Z,80.49
2023-12-09T22:04:27.111Z,80.41
2023-12-09T22:09:33.121Z,80.69
2023-12-09T22:14:39.284Z,80.75
2023-12-09T22:19:45.130Z,80.63
2023-12-09T22:24:51.206Z,79.78
2023-12-09T22:29:57.094Z,79.70
2023-12-09T22:35:04.118Z,79.80
2023-12-09T22:40:11.871Z,79.91
2023-12-09T22:45:18.379Z,79.95
2023-12-09T22:50:24.449Z,79.96
2023-12-09T22:55:30.700Z,80.21
2023-12-09T23:00:38.446Z,80.25
2023-12-09T23:05:45.249Z,80.15
2023-12-09T23:10:51.138Z,80.06
2023-12-09T23:15:57.095Z,80.26
2023-12-09T23:21:03.137Z,80.06
2023-12-09T23:26:09.668Z,80.00
2023-12-09T23:31:20.124Z,79.97
2023-12-09T23:36:31.536Z,80.08
2023-12-09T23:41:37.447Z,79.98
2023-12-09T23:46:43.477Z,80.09
2023-12-09T23:51:49.543Z,79.85
2023-12-09T23:56:55.551Z,79.49
